sensor_id;sensor_type;location;lat;lon;timestamp;temperature;humidity
8475;DHT22;4274;52.012;8.448;2023-04-10T00:00:05;8.30;99.90
8475;DHT22;4274;52.012;8.448;2023-04-10T00:02:32;8.20;99.90
8475;DHT22;4274;52.012;8.448;2023-04-10T00:04:58;8.10;99.90
8475;DHT22;4274;52.012;8.448;2023-04-10T00:07:24;8.00;99.90
8475;DHT22;4274;52.012;8.448;2023-04-10T00:09:49;8.00;99.90
8475;DHT22;4274;52.012;8.448;2023-04-10T00:12:15;7.90;99.90
8475;DHT22;4274;52.012;8.448;2023-04-10T00:14:41;7.90;99.90
8475;DHT22;4274;52.012;8.448;2023-04-10T00:17:06;7.90;99.90
8475;DHT22;4274;52.012;8.448;2023-04-10T00:19:32;7.90;99.90
8475;DHT22;4274;52.012;8.448;2023-04-10T00:21:58;7.80;99.90
8475;DHT22;4274;52.012;8.448;2023-04-10T00:24:23;7.80;99.90
8475;DHT22;4274;52.012;8.448;2023-04-10T00:26:49;7.70;99.90
8475;DHT22;4274;52.012;8.448;2023-04-10T00:29:15;7.80;99.90
8475;DHT22;4274;52.012;8.448;2023-04-10T00:31:40;7.80;99.90
8475;DHT22;4274;52.012;8.448;2023-04-10T00:34:06;7.80;99.90
8475;DHT22;4274;52.012;8.448;2023-04-10T00:36:32;7.90;99.90
8475;DHT22;4274;52.012;8.448;2023-04-10T00:38:57;7.80;99.90
8475;DHT22;4274;52.012;8.448;2023-04-10T00:41:24;7.80;99.90
8475;DHT22;4274;52.012;8.448;2023-04-10T00:43:54;7.80;99.90
8475;DHT22;4274;52.012;8.448;2023-04-10T00:46:20;7.80;99.90
8475;DHT22;4274;52.012;8.448;2023-04-10T00:48:46;7.80;99.90
8475;DHT22;4274;52.012;8.448;2023-04-10T00:51:12;7.80;99.90
8475;DHT22;4274;52.012;8.448;2023-04-10T00:53:37;7.80;99.90
8475;DHT22;4274;52.012;8.448;2023-04-10T00:56:03;7.80;99.90
8475;DHT22;4274;52.012;8.448;2023-04-10T00:58:29;7.70;99.90
8475;DHT22;4274;52.012;8.448;2023-04-10T01:00:55;7.70;99.90
8475;DHT22;4274;52.012;8.448;2023-04-10T01:03:21;7.70;99.90
8475;DHT22;4274;52.012;8.448;2023-04-10T01:11:59;7.70;99.90
8475;DHT22;4274;52.012;8.448;2023-04-10T01:15:02;7.70;99.90
8475;DHT22;4274;52.012;8.448;2023-04-10T01:22:45;7.60;99.90
8475;DHT22;4274;52.012;8.448;2023-04-10T01:28:00;7.60;99.90
8475;DHT22;4274;52.012;8.448;2023-04-10T01:30:31;7.60;99.90
8475;DHT22;4274;52.012;8.448;2023-04-10T01:32:58;7.50;99.90
8475;DHT22;4274;52.012;8.448;2023-04-10T01:35:25;7.50;99.90
8475;DHT22;4274;52.012;8.448;2023-04-10T01:37:54;7.50;99.90
8475;DHT22;4274;52.012;8.448;2023-04-10T01:40:21;7.50;99.90
8475;DHT22;4274;52.012;8.448;2023-04-10T01:42:50;7.40;99.90
8475;DHT22;4274;52.012;8.448;2023-04-10T01:45:24;7.40;99.90
8475;DHT22;4274;52.012;8.448;2023-04-10T01:47:50;7.40;99.90
8475;DHT22;4274;52.012;8.448;2023-04-10T01:50:17;7.30;99.90
8475;DHT22;4274;52.012;8.448;2023-04-10T01:52:45;7.30;99.90
8475;DHT22;4274;52.012;8.448;2023-04-10T01:55:11;7.30;99.90
8475;DHT22;4274;52.012;8.448;2023-04-10T01:57:37;7.30;99.90
8475;DHT22;4274;52.012;8.448;2023-04-10T02:00:03;7.30;99.90
8475;DHT22;4274;52.012;8.448;2023-04-10T02:02:33;7.20;99.90
8475;DHT22;4274;52.012;8.448;2023-04-10T02:04:59;7.20;99.90
8475;DHT22;4274;52.012;8.448;2023-04-10T02:10:21;7.30;99.90
8475;DHT22;4274;52.012;8.448;2023-04-10T02:12:52;7.20;99.90
8475;DHT22;4274;52.012;8.448;2023-04-10T02:15:22;7.20;99.90
8475;DHT22;4274;52.012;8.448;2023-04-10T02:17:48;7.20;99.90
8475;DHT22;4274;52.012;8.448;2023-04-10T02:20:16;7.20;99.90
8475;DHT22;4274;52.012;8.448;2023-04-10T02:22:43;7.20;99.90
8475;DHT22;4274;52.012;8.448;2023-04-10T02:25:10;7.20;99.90
8475;DHT22;4274;52.012;8.448;2023-04-10T02:27:36;7.10;99.90
8475;DHT22;4274;52.012;8.448;2023-04-10T02:30:03;7.10;99.90
8475;DHT22;4274;52.012;8.448;2023-04-10T02:32:29;7.10;99.90
8475;DHT22;4274;52.012;8.448;2023-04-10T02:34:55;7.10;99.90
8475;DHT22;4274;52.012;8.448;2023-04-10T02:37:21;7.10;99.90
8475;DHT22;4274;52.012;8.448;2023-04-10T02:39:47;7.10;99.90
8475;DHT22;4274;52.012;8.448;2023-04-10T02:42:13;7.10;99.90
8475;DHT22;4274;52.012;8.448;2023-04-10T02:44:38;7.10;99.90
8475;DHT22;4274;52.012;8.448;2023-04-10T02:47:04;7.10;99.90
8475;DHT22;4274;52.012;8.448;2023-04-10T02:49:32;7.10;99.90
8475;DHT22;4274;52.012;8.448;2023-04-10T02:51:59;7.10;99.90
8475;DHT22;4274;52.012;8.448;2023-04-10T02:54:24;7.00;99.90
8475;DHT22;4274;52.012;8.448;2023-04-10T02:56:50;7.00;99.90
8475;DHT22;4274;52.012;8.448;2023-04-10T02:59:15;7.00;99.90
8475;DHT22;4274;52.012;8.448;2023-04-10T03:01:42;7.10;99.90
8475;DHT22;4274;52.012;8.448;2023-04-10T03:04:07;7.10;99.90
8475;DHT22;4274;52.012;8.448;2023-04-10T03:06:33;7.10;99.90
8475;DHT22;4274;52.012;8.448;2023-04-10T03:08:58;7.10;99.90
8475;DHT22;4274;52.012;8.448;2023-04-10T03:11:25;7.10;99.90
8475;DHT22;4274;52.012;8.448;2023-04-10T03:13:50;7.10;99.90
8475;DHT22;4274;52.012;8.448;2023-04-10T03:16:16;7.00;99.90
8475;DHT22;4274;52.012;8.448;2023-04-10T03:18:45;7.00;99.90
8475;DHT22;4274;52.012;8.448;2023-04-10T03:21:11;7.00;99.90
8475;DHT22;4274;52.012;8.448;2023-04-10T03:23:36;7.10;99.90
8475;DHT22;4274;52.012;8.448;2023-04-10T03:26:02;7.10;99.90
8475;DHT22;4274;52.012;8.448;2023-04-10T03:28:29;7.00;99.90
8475;DHT22;4274;52.012;8.448;2023-04-10T03:30:55;7.00;99.90
8475;DHT22;4274;52.012;8.448;2023-04-10T03:33:21;7.00;99.90
8475;DHT22;4274;52.012;8.448;2023-04-10T03:35:47;7.00;99.90
8475;DHT22;4274;52.012;8.448;2023-04-10T03:38:12;7.00;99.90
8475;DHT22;4274;52.012;8.448;2023-04-10T03:40:38;7.00;99.90
8475;DHT22;4274;52.012;8.448;2023-04-10T03:43:04;7.00;99.90
8475;DHT22;4274;52.012;8.448;2023-04-10T03:45:30;6.90;99.90
8475;DHT22;4274;52.012;8.448;2023-04-10T03:47:55;6.90;99.90
8475;DHT22;4274;52.012;8.448;2023-04-10T03:50:21;6.90;99.90
8475;DHT22;4274;52.012;8.448;2023-04-10T03:52:47;6.90;99.90
8475;DHT22;4274;52.012;8.448;2023-04-10T03:55:14;6.90;99.90
8475;DHT22;4274;52.012;8.448;2023-04-10T03:57:46;6.90;99.90
8475;DHT22;4274;52.012;8.448;2023-04-10T04:00:13;6.90;99.90
8475;DHT22;4274;52.012;8.448;2023-04-10T04:02:38;6.90;99.90
8475;DHT22;4274;52.012;8.448;2023-04-10T04:05:04;6.90;99.90
8475;DHT22;4274;52.012;8.448;2023-04-10T04:07:30;6.80;99.90
8475;DHT22;4274;52.012;8.448;2023-04-10T04:09:56;6.80;99.90
8475;DHT22;4274;52.012;8.448;2023-04-10T04:12:21;6.80;99.90
8475;DHT22;4274;52.012;8.448;2023-04-10T04:14:47;6.90;99.90
8475;DHT22;4274;52.012;8.448;2023-04-10T04:17:12;6.90;99.90
8475;DHT22;4274;52.012;8.448;2023-04-10T04:19:38;6.90;99.90
8475;DHT22;4274;52.012;8.448;2023-04-10T04:22:03;6.80;99.90
8475;DHT22;4274;52.012;8.448;2023-04-10T04:24:29;6.80;99.90
8475;DHT22;4274;52.012;8.448;2023-04-10T04:26:55;6.80;99.90
8475;DHT22;4274;52.012;8.448;2023-04-10T04:29:21;6.80;99.90
8475;DHT22;4274;52.012;8.448;2023-04-10T04:31:47;6.70;99.90
8475;DHT22;4274;52.012;8.448;2023-04-10T04:34:13;6.80;99.90
8475;DHT22;4274;52.012;8.448;2023-04-10T04:36:38;6.80;99.90
8475;DHT22;4274;52.012;8.448;2023-04-10T04:39:04;6.80;99.90
8475;DHT22;4274;52.012;8.448;2023-04-10T04:41:30;6.80;99.90
8475;DHT22;4274;52.012;8.448;2023-04-10T04:43:57;6.80;99.90
8475;DHT22;4274;52.012;8.448;2023-04-10T04:46:23;6.80;99.90
8475;DHT22;4274;52.012;8.448;2023-04-10T04:48:48;6.80;99.90
8475;DHT22;4274;52.012;8.448;2023-04-10T04:51:15;6.80;99.90
8475;DHT22;4274;52.012;8.448;2023-04-10T04:53:40;6.80;99.90
8475;DHT22;4274;52.012;8.448;2023-04-10T04:56:06;6.90;99.90
8475;DHT22;4274;52.012;8.448;2023-04-10T04:58:33;6.90;99.90
8475;DHT22;4274;52.012;8.448;2023-04-10T05:00:59;6.90;99.90
8475;DHT22;4274;52.012;8.448;2023-04-10T05:03:25;7.00;99.90
8475;DHT22;4274;52.012;8.448;2023-04-10T05:05:53;7.00;99.90
8475;DHT22;4274;52.012;8.448;2023-04-10T05:08:18;7.10;99.90
8475;DHT22;4274;52.012;8.448;2023-04-10T05:10:44;7.10;99.90
8475;DHT22;4274;52.012;8.448;2023-04-10T05:13:10;7.20;99.90
8475;DHT22;4274;52.012;8.448;2023-04-10T05:15:36;7.20;99.90
8475;DHT22;4274;52.012;8.448;2023-04-10T05:18:01;7.30;99.90
8475;DHT22;4274;52.012;8.448;2023-04-10T05:20:27;7.30;99.90
8475;DHT22;4274;52.012;8.448;2023-04-10T05:22:53;7.40;99.90
8475;DHT22;4274;52.012;8.448;2023-04-10T05:25:18;7.40;99.90
8475;DHT22;4274;52.012;8.448;2023-04-10T05:27:44;7.50;99.90
8475;DHT22;4274;52.012;8.448;2023-04-10T05:30:10;7.50;99.90
8475;DHT22;4274;52.012;8.448;2023-04-10T05:32:36;7.60;99.90
8475;DHT22;4274;52.012;8.448;2023-04-10T05:35:01;7.70;99.90
8475;DHT22;4274;52.012;8.448;2023-04-10T05:37:27;7.70;99.90
8475;DHT22;4274;52.012;8.448;2023-04-10T05:39:52;7.80;99.90
8475;DHT22;4274;52.012;8.448;2023-04-10T05:42:18;7.90;99.90
8475;DHT22;4274;52.012;8.448;2023-04-10T05:44:44;8.00;99.90
8475;DHT22;4274;52.012;8.448;2023-04-10T05:47:09;8.00;99.90
8475;DHT22;4274;52.012;8.448;2023-04-10T05:49:35;8.10;99.90
8475;DHT22;4274;52.012;8.448;2023-04-10T05:52:01;8.20;99.90
8475;DHT22;4274;52.012;8.448;2023-04-10T05:54:26;8.30;99.90
8475;DHT22;4274;52.012;8.448;2023-04-10T05:56:52;8.50;99.90
8475;DHT22;4274;52.012;8.448;2023-04-10T05:59:17;8.60;99.90
8475;DHT22;4274;52.012;8.448;2023-04-10T06:01:43;8.70;99.90
8475;DHT22;4274;52.012;8.448;2023-04-10T06:04:11;8.90;99.90
8475;DHT22;4274;52.012;8.448;2023-04-10T06:06:37;9.20;99.90
8475;DHT22;4274;52.012;8.448;2023-04-10T06:09:03;9.70;99.90
8475;DHT22;4274;52.012;8.448;2023-04-10T06:11:28;10.30;99.90
8475;DHT22;4274;52.012;8.448;2023-04-10T06:13:54;10.70;99.90
8475;DHT22;4274;52.012;8.448;2023-04-10T06:16:19;11.00;99.90
8475;DHT22;4274;52.012;8.448;2023-04-10T06:18:45;11.20;99.90
8475;DHT22;4274;52.012;8.448;2023-04-10T06:21:12;11.10;99.90
8475;DHT22;4274;52.012;8.448;2023-04-10T06:23:37;11.00;99.90
8475;DHT22;4274;52.012;8.448;2023-04-10T06:26:03;10.90;99.90
8475;DHT22;4274;52.012;8.448;2023-04-10T06:28:29;10.80;99.90
8475;DHT22;4274;52.012;8.448;2023-04-10T06:30:55;10.70;99.90
8475;DHT22;4274;52.012;8.448;2023-04-10T06:33:21;10.60;99.90
8475;DHT22;4274;52.012;8.448;2023-04-10T06:35:47;10.50;99.90
8475;DHT22;4274;52.012;8.448;2023-04-10T06:38:13;10.50;99.90
8475;DHT22;4274;52.012;8.448;2023-04-10T06:40:39;10.60;99.90
8475;DHT22;4274;52.012;8.448;2023-04-10T06:43:05;10.80;99.90
8475;DHT22;4274;52.012;8.448;2023-04-10T06:45:31;11.10;99.90
8475;DHT22;4274;52.012;8.448;2023-04-10T06:47:56;11.30;99.90
8475;DHT22;4274;52.012;8.448;2023-04-10T06:50:22;11.50;99.90
8475;DHT22;4274;52.012;8.448;2023-04-10T06:52:47;11.80;99.90
8475;DHT22;4274;52.012;8.448;2023-04-10T06:55:13;11.90;99.90
8475;DHT22;4274;52.012;8.448;2023-04-10T06:57:39;12.00;99.90
8475;DHT22;4274;52.012;8.448;2023-04-10T07:00:05;12.10;99.90
8475;DHT22;4274;52.012;8.448;2023-04-10T07:02:31;12.30;99.90
8475;DHT22;4274;52.012;8.448;2023-04-10T07:04:57;12.50;99.90
8475;DHT22;4274;52.012;8.448;2023-04-10T07:07:22;12.80;99.90
8475;DHT22;4274;52.012;8.448;2023-04-10T07:09:48;13.20;99.90
8475;DHT22;4274;52.012;8.448;2023-04-10T07:12:13;13.70;99.90
8475;DHT22;4274;52.012;8.448;2023-04-10T07:14:39;14.30;99.90
8475;DHT22;4274;52.012;8.448;2023-04-10T07:17:05;14.90;99.90
8475;DHT22;4274;52.012;8.448;2023-04-10T07:19:31;15.30;99.20
8475;DHT22;4274;52.012;8.448;2023-04-10T07:21:56;15.80;98.90
8475;DHT22;4274;52.012;8.448;2023-04-10T07:24:22;16.30;97.60
8475;DHT22;4274;52.012;8.448;2023-04-10T07:26:48;16.90;97.10
8475;DHT22;4274;52.012;8.448;2023-04-10T07:29:14;17.30;95.80
8475;DHT22;4274;52.012;8.448;2023-04-10T07:31:40;17.70;95.30
8475;DHT22;4274;52.012;8.448;2023-04-10T07:34:06;18.30;93.80
8475;DHT22;4274;52.012;8.448;2023-04-10T07:36:31;18.60;92.60
8475;DHT22;4274;52.012;8.448;2023-04-10T07:38:57;18.80;92.50
8475;DHT22;4274;52.012;8.448;2023-04-10T07:41:23;19.00;91.80
8475;DHT22;4274;52.012;8.448;2023-04-10T07:43:49;19.20;90.60
8475;DHT22;4274;52.012;8.448;2023-04-10T07:46:15;19.20;91.00
8475;DHT22;4274;52.012;8.448;2023-04-10T07:48:41;19.40;90.50
8475;DHT22;4274;52.012;8.448;2023-04-10T07:51:06;19.40;90.00
8475;DHT22;4274;52.012;8.448;2023-04-10T07:53:34;19.20;88.30
8475;DHT22;4274;52.012;8.448;2023-04-10T07:56:00;19.00;89.00
8475;DHT22;4274;52.012;8.448;2023-04-10T07:58:26;19.00;89.10
8475;DHT22;4274;52.012;8.448;2023-04-10T08:00:52;18.80;87.50
8475;DHT22;4274;52.012;8.448;2023-04-10T08:03:17;18.60;88.70
8475;DHT22;4274;52.012;8.448;2023-04-10T08:05:43;18.50;88.70
8475;DHT22;4274;52.012;8.448;2023-04-10T08:08:08;18.50;88.00
8475;DHT22;4274;52.012;8.448;2023-04-10T08:10:37;18.50;87.40
8475;DHT22;4274;52.012;8.448;2023-04-10T08:13:04;18.40;87.30
8475;DHT22;4274;52.012;8.448;2023-04-10T08:15:30;18.20;88.30
8475;DHT22;4274;52.012;8.448;2023-04-10T08:17:55;18.30;88.20
8475;DHT22;4274;52.012;8.448;2023-04-10T08:20:21;18.50;87.20
8475;DHT22;4274;52.012;8.448;2023-04-10T08:22:46;18.60;87.10
8475;DHT22;4274;52.012;8.448;2023-04-10T08:25:12;18.60;87.20
8475;DHT22;4274;52.012;8.448;2023-04-10T08:27:37;18.90;87.40
8475;DHT22;4274;52.012;8.448;2023-04-10T08:30:04;19.10;86.50
8475;DHT22;4274;52.012;8.448;2023-04-10T08:32:30;19.00;85.10
8475;DHT22;4274;52.012;8.448;2023-04-10T08:34:55;18.90;86.40
8475;DHT22;4274;52.012;8.448;2023-04-10T08:37:21;18.90;86.00
8475;DHT22;4274;52.012;8.448;2023-04-10T08:39:47;19.00;86.50
8475;DHT22;4274;52.012;8.448;2023-04-10T08:42:12;19.20;86.60
8475;DHT22;4274;52.012;8.448;2023-04-10T08:44:38;19.70;86.80
8475;DHT22;4274;52.012;8.448;2023-04-10T08:47:07;20.10;84.90
8475;DHT22;4274;52.012;8.448;2023-04-10T08:49:40;20.30;83.80
8475;DHT22;4274;52.012;8.448;2023-04-10T08:52:14;19.90;82.80
8475;DHT22;4274;52.012;8.448;2023-04-10T08:54:40;19.10;83.10
8475;DHT22;4274;52.012;8.448;2023-04-10T08:57:08;18.60;84.80
8475;DHT22;4274;52.012;8.448;2023-04-10T08:59:38;18.30;85.10
8475;DHT22;4274;52.012;8.448;2023-04-10T09:02:04;18.10;86.10
8475;DHT22;4274;52.012;8.448;2023-04-10T09:04:30;18.10;85.30
8475;DHT22;4274;52.012;8.448;2023-04-10T09:06:56;18.20;86.50
8475;DHT22;4274;52.012;8.448;2023-04-10T09:09:21;18.30;86.40
8475;DHT22;4274;52.012;8.448;2023-04-10T09:14:24;19.30;85.50
8475;DHT22;4274;52.012;8.448;2023-04-10T09:16:51;19.80;84.90
8475;DHT22;4274;52.012;8.448;2023-04-10T09:19:30;20.10;83.80
8475;DHT22;4274;52.012;8.448;2023-04-10T09:21:56;20.30;82.00
8475;DHT22;4274;52.012;8.448;2023-04-10T09:24:23;20.20;83.70
8475;DHT22;4274;52.012;8.448;2023-04-10T09:26:49;20.10;81.60
8475;DHT22;4274;52.012;8.448;2023-04-10T09:29:14;19.80;81.80
8475;DHT22;4274;52.012;8.448;2023-04-10T09:31:41;19.80;80.80
8475;DHT22;4274;52.012;8.448;2023-04-10T09:34:09;19.70;80.80
8475;DHT22;4274;52.012;8.448;2023-04-10T09:36:35;20.00;81.50
8475;DHT22;4274;52.012;8.448;2023-04-10T09:39:06;20.10;80.00
8475;DHT22;4274;52.012;8.448;2023-04-10T09:41:32;20.40;79.90
8475;DHT22;4274;52.012;8.448;2023-04-10T09:44:31;20.60;78.30
8475;DHT22;4274;52.012;8.448;2023-04-10T09:46:58;20.70;78.50
8475;DHT22;4274;52.012;8.448;2023-04-10T09:49:50;20.90;78.80
8475;DHT22;4274;52.012;8.448;2023-04-10T09:52:21;21.10;76.20
8475;DHT22;4274;52.012;8.448;2023-04-10T09:54:47;20.90;76.50
8475;DHT22;4274;52.012;8.448;2023-04-10T09:57:17;20.90;76.70
8475;DHT22;4274;52.012;8.448;2023-04-10T09:59:48;20.90;75.20
8475;DHT22;4274;52.012;8.448;2023-04-10T10:02:16;20.70;75.30
8475;DHT22;4274;52.012;8.448;2023-04-10T10:04:44;20.50;74.90
8475;DHT22;4274;52.012;8.448;2023-04-10T10:07:11;20.30;76.10
8475;DHT22;4274;52.012;8.448;2023-04-10T10:09:36;20.50;75.60
8475;DHT22;4274;52.012;8.448;2023-04-10T10:12:03;21.00;75.60
8475;DHT22;4274;52.012;8.448;2023-04-10T10:14:30;21.30;74.70
8475;DHT22;4274;52.012;8.448;2023-04-10T10:17:01;21.40;74.00
8475;DHT22;4274;52.012;8.448;2023-04-10T10:19:41;21.10;73.60
8475;DHT22;4274;52.012;8.448;2023-04-10T10:22:07;21.00;73.40
8475;DHT22;4274;52.012;8.448;2023-04-10T10:24:35;20.80;73.50
8475;DHT22;4274;52.012;8.448;2023-04-10T10:27:03;20.80;74.80
8475;DHT22;4274;52.012;8.448;2023-04-10T10:29:31;21.00;74.80
8475;DHT22;4274;52.012;8.448;2023-04-10T10:31:59;20.80;73.70
8475;DHT22;4274;52.012;8.448;2023-04-10T10:34:27;20.90;73.80
8475;DHT22;4274;52.012;8.448;2023-04-10T10:36:53;21.30;74.00
8475;DHT22;4274;52.012;8.448;2023-04-10T10:44:47;21.90;72.60
8475;DHT22;4274;52.012;8.448;2023-04-10T10:47:23;22.00;72.80
8475;DHT22;4274;52.012;8.448;2023-04-10T10:52:47;22.20;72.00
8475;DHT22;4274;52.012;8.448;2023-04-10T10:57:50;21.70;71.60
8475;DHT22;4274;52.012;8.448;2023-04-10T11:00:23;21.50;72.80
8475;DHT22;4274;52.012;8.448;2023-04-10T11:05:56;21.50;70.80
8475;DHT22;4274;52.012;8.448;2023-04-10T11:11:04;21.10;71.30
8475;DHT22;4274;52.012;8.448;2023-04-10T11:13:33;20.70;70.40
8475;DHT22;4274;52.012;8.448;2023-04-10T11:16:00;20.40;71.70
8475;DHT22;4274;52.012;8.448;2023-04-10T11:21:13;19.90;72.00
8475;DHT22;4274;52.012;8.448;2023-04-10T11:26:35;19.70;72.80
8475;DHT22;4274;52.012;8.448;2023-04-10T11:29:01;19.60;72.00
8475;DHT22;4274;52.012;8.448;2023-04-10T11:31:31;19.40;71.70
8475;DHT22;4274;52.012;8.448;2023-04-10T11:34:01;19.10;72.70
8475;DHT22;4274;52.012;8.448;2023-04-10T11:36:27;19.00;71.30
8475;DHT22;4274;52.012;8.448;2023-04-10T11:41:19;18.70;72.00
8475;DHT22;4274;52.012;8.448;2023-04-10T11:43:50;18.70;71.90
8475;DHT22;4274;52.012;8.448;2023-04-10T11:46:16;18.80;72.60
8475;DHT22;4274;52.012;8.448;2023-04-10T11:48:42;18.90;72.60
8475;DHT22;4274;52.012;8.448;2023-04-10T11:51:12;18.80;72.00
8475;DHT22;4274;52.012;8.448;2023-04-10T11:53:39;18.70;72.60
8475;DHT22;4274;52.012;8.448;2023-04-10T11:56:05;18.70;73.40
8475;DHT22;4274;52.012;8.448;2023-04-10T11:58:38;18.70;73.50
8475;DHT22;4274;52.012;8.448;2023-04-10T12:01:04;18.70;72.60
8475;DHT22;4274;52.012;8.448;2023-04-10T12:03:40;18.60;73.40
8475;DHT22;4274;52.012;8.448;2023-04-10T12:06:07;18.60;73.80
8475;DHT22;4274;52.012;8.448;2023-04-10T12:08:36;18.70;73.90
8475;DHT22;4274;52.012;8.448;2023-04-10T12:11:01;18.80;73.20
8475;DHT22;4274;52.012;8.448;2023-04-10T12:13:29;18.80;72.90
8475;DHT22;4274;52.012;8.448;2023-04-10T12:15:57;18.80;73.00
8475;DHT22;4274;52.012;8.448;2023-04-10T12:18:24;18.90;73.70
8475;DHT22;4274;52.012;8.448;2023-04-10T12:20:50;19.10;72.90
8475;DHT22;4274;52.012;8.448;2023-04-10T12:23:21;19.20;72.80
8475;DHT22;4274;52.012;8.448;2023-04-10T12:25:47;19.20;72.10
8475;DHT22;4274;52.012;8.448;2023-04-10T12:28:20;19.10;72.70
8475;DHT22;4274;52.012;8.448;2023-04-10T12:30:49;19.40;72.30
8475;DHT22;4274;52.012;8.448;2023-04-10T12:33:22;19.50;73.40
8475;DHT22;4274;52.012;8.448;2023-04-10T12:35:47;19.70;71.70
8475;DHT22;4274;52.012;8.448;2023-04-10T12:38:13;19.70;72.30
8475;DHT22;4274;52.012;8.448;2023-04-10T12:40:57;19.90;73.00
8475;DHT22;4274;52.012;8.448;2023-04-10T12:43:38;20.10;72.10
8475;DHT22;4274;52.012;8.448;2023-04-10T12:46:05;20.20;69.60
8475;DHT22;4274;52.012;8.448;2023-04-10T12:48:32;20.00;70.30
8475;DHT22;4274;52.012;8.448;2023-04-10T12:50:58;20.10;69.70
8475;DHT22;4274;52.012;8.448;2023-04-10T12:53:24;20.10;70.20
8475;DHT22;4274;52.012;8.448;2023-04-10T12:56:03;20.00;71.30
8475;DHT22;4274;52.012;8.448;2023-04-10T12:58:31;19.80;70.50
8475;DHT22;4274;52.012;8.448;2023-04-10T13:01:00;19.60;68.40
8475;DHT22;4274;52.012;8.448;2023-04-10T13:03:26;19.30;69.70
8475;DHT22;4274;52.012;8.448;2023-04-10T13:05:52;19.30;70.50
8475;DHT22;4274;52.012;8.448;2023-04-10T13:08:18;19.20;69.80
8475;DHT22;4274;52.012;8.448;2023-04-10T13:10:44;19.40;69.40
8475;DHT22;4274;52.012;8.448;2023-04-10T13:13:10;19.60;69.60
8475;DHT22;4274;52.012;8.448;2023-04-10T13:15:37;19.80;70.50
8475;DHT22;4274;52.012;8.448;2023-04-10T13:18:03;19.90;68.60
8475;DHT22;4274;52.012;8.448;2023-04-10T13:20:35;20.00;69.60
8475;DHT22;4274;52.012;8.448;2023-04-10T13:23:01;20.00;69.20
8475;DHT22;4274;52.012;8.448;2023-04-10T13:25:30;20.20;70.10
8475;DHT22;4274;52.012;8.448;2023-04-10T13:27:57;20.30;68.60
8475;DHT22;4274;52.012;8.448;2023-04-10T13:30:23;20.30;69.00
8475;DHT22;4274;52.012;8.448;2023-04-10T13:32:49;20.30;68.40
8475;DHT22;4274;52.012;8.448;2023-04-10T13:35:14;20.20;68.70
8475;DHT22;4274;52.012;8.448;2023-04-10T13:37:40;19.90;68.40
8475;DHT22;4274;52.012;8.448;2023-04-10T13:40:06;19.80;70.50
8475;DHT22;4274;52.012;8.448;2023-04-10T13:42:32;19.50;67.60
8475;DHT22;4274;52.012;8.448;2023-04-10T13:44:58;19.20;68.40
8475;DHT22;4274;52.012;8.448;2023-04-10T13:47:23;18.90;67.90
8475;DHT22;4274;52.012;8.448;2023-04-10T13:49:49;18.80;69.30
8475;DHT22;4274;52.012;8.448;2023-04-10T13:52:15;18.70;68.60
8475;DHT22;4274;52.012;8.448;2023-04-10T13:54:40;18.50;68.60
8475;DHT22;4274;52.012;8.448;2023-04-10T13:57:06;18.40;69.90
8475;DHT22;4274;52.012;8.448;2023-04-10T13:59:31;18.40;69.00
8475;DHT22;4274;52.012;8.448;2023-04-10T14:01:57;18.30;70.10
8475;DHT22;4274;52.012;8.448;2023-04-10T14:04:22;18.20;69.70
8475;DHT22;4274;52.012;8.448;2023-04-10T14:06:48;18.20;69.50
8475;DHT22;4274;52.012;8.448;2023-04-10T14:09:14;18.10;69.80
8475;DHT22;4274;52.012;8.448;2023-04-10T14:11:40;18.20;70.20
8475;DHT22;4274;52.012;8.448;2023-04-10T14:14:05;18.30;70.10
8475;DHT22;4274;52.012;8.448;2023-04-10T14:16:31;18.40;71.00
8475;DHT22;4274;52.012;8.448;2023-04-10T14:18:57;18.50;71.00
8475;DHT22;4274;52.012;8.448;2023-04-10T14:21:22;18.50;70.60
8475;DHT22;4274;52.012;8.448;2023-04-10T14:23:48;18.50;71.30
8475;DHT22;4274;52.012;8.448;2023-04-10T14:26:13;18.60;71.30
8475;DHT22;4274;52.012;8.448;2023-04-10T14:28:39;18.60;70.90
8475;DHT22;4274;52.012;8.448;2023-04-10T14:31:05;18.50;70.30
8475;DHT22;4274;52.012;8.448;2023-04-10T14:33:32;18.40;70.40
8475;DHT22;4274;52.012;8.448;2023-04-10T14:35:57;18.30;71.30
8475;DHT22;4274;52.012;8.448;2023-04-10T14:38:23;18.40;72.10
8475;DHT22;4274;52.012;8.448;2023-04-10T14:40:49;18.50;73.00
8475;DHT22;4274;52.012;8.448;2023-04-10T14:43:15;18.50;72.20
8475;DHT22;4274;52.012;8.448;2023-04-10T14:45:41;18.50;71.60
8475;DHT22;4274;52.012;8.448;2023-04-10T14:48:06;18.40;71.30
8475;DHT22;4274;52.012;8.448;2023-04-10T14:50:32;18.40;71.90
8475;DHT22;4274;52.012;8.448;2023-04-10T14:52:58;18.40;71.20
8475;DHT22;4274;52.012;8.448;2023-04-10T14:55:25;18.40;71.60
8475;DHT22;4274;52.012;8.448;2023-04-10T14:57:50;18.40;72.00
8475;DHT22;4274;52.012;8.448;2023-04-10T15:00:16;18.40;71.10
8475;DHT22;4274;52.012;8.448;2023-04-10T15:02:42;18.20;71.60
8475;DHT22;4274;52.012;8.448;2023-04-10T15:05:08;18.10;70.70
8475;DHT22;4274;52.012;8.448;2023-04-10T15:07:33;18.00;72.00
8475;DHT22;4274;52.012;8.448;2023-04-10T15:09:59;17.90;70.70
8475;DHT22;4274;52.012;8.448;2023-04-10T15:12:24;17.80;69.60
8475;DHT22;4274;52.012;8.448;2023-04-10T15:14:50;17.70;71.40
8475;DHT22;4274;52.012;8.448;2023-04-10T15:17:16;17.70;71.50
8475;DHT22;4274;52.012;8.448;2023-04-10T15:19:42;17.70;71.60
8475;DHT22;4274;52.012;8.448;2023-04-10T15:22:07;17.70;71.50
8475;DHT22;4274;52.012;8.448;2023-04-10T15:24:33;17.60;72.30
8475;DHT22;4274;52.012;8.448;2023-04-10T15:26:59;17.60;71.50
8475;DHT22;4274;52.012;8.448;2023-04-10T15:29:25;17.60;70.60
8475;DHT22;4274;52.012;8.448;2023-04-10T15:31:51;17.60;70.50
8475;DHT22;4274;52.012;8.448;2023-04-10T15:34:16;17.50;71.20
8475;DHT22;4274;52.012;8.448;2023-04-10T15:36:42;17.40;71.60
8475;DHT22;4274;52.012;8.448;2023-04-10T15:39:08;17.40;71.70
8475;DHT22;4274;52.012;8.448;2023-04-10T15:41:34;17.30;71.30
8475;DHT22;4274;52.012;8.448;2023-04-10T15:43:59;17.30;72.00
8475;DHT22;4274;52.012;8.448;2023-04-10T15:46:25;17.30;72.00
8475;DHT22;4274;52.012;8.448;2023-04-10T15:48:51;17.30;72.60
8475;DHT22;4274;52.012;8.448;2023-04-10T15:51:16;17.30;72.70
8475;DHT22;4274;52.012;8.448;2023-04-10T15:53:42;17.20;73.20
8475;DHT22;4274;52.012;8.448;2023-04-10T15:56:08;17.20;73.80
8475;DHT22;4274;52.012;8.448;2023-04-10T15:58:33;17.20;73.30
8475;DHT22;4274;52.012;8.448;2023-04-10T16:01:00;17.10;73.50
8475;DHT22;4274;52.012;8.448;2023-04-10T16:03:25;17.00;73.90
8475;DHT22;4274;52.012;8.448;2023-04-10T16:05:52;16.90;74.90
8475;DHT22;4274;52.012;8.448;2023-04-10T16:08:18;16.90;74.50
8475;DHT22;4274;52.012;8.448;2023-04-10T16:10:43;16.90;74.80
8475;DHT22;4274;52.012;8.448;2023-04-10T16:13:09;16.90;74.40
8475;DHT22;4274;52.012;8.448;2023-04-10T16:15:36;16.80;75.10
8475;DHT22;4274;52.012;8.448;2023-04-10T16:18:03;16.80;75.30
8475;DHT22;4274;52.012;8.448;2023-04-10T16:20:29;16.70;75.80
8475;DHT22;4274;52.012;8.448;2023-04-10T16:22:55;16.70;76.20
8475;DHT22;4274;52.012;8.448;2023-04-10T16:25:21;16.50;75.70
8475;DHT22;4274;52.012;8.448;2023-04-10T16:27:48;16.50;76.10
8475;DHT22;4274;52.012;8.448;2023-04-10T16:30:13;16.50;76.10
8475;DHT22;4274;52.012;8.448;2023-04-10T16:32:39;16.40;76.60
8475;DHT22;4274;52.012;8.448;2023-04-10T16:35:05;16.30;76.20
8475;DHT22;4274;52.012;8.448;2023-04-10T16:37:31;16.30;76.50
8475;DHT22;4274;52.012;8.448;2023-04-10T16:39:56;16.20;76.50
8475;DHT22;4274;52.012;8.448;2023-04-10T16:42:22;16.20;77.00
8475;DHT22;4274;52.012;8.448;2023-04-10T16:44:47;16.10;76.80
8475;DHT22;4274;52.012;8.448;2023-04-10T16:47:13;16.00;76.90